createdAt,value
2016-02-29T00:00:49.902Z,1014.76
2016-02-29T00:01:49.904Z,1014.78
2016-02-29T00:02:49.907Z,1014.76
2016-02-29T00:03:49.910Z,1014.73
2016-02-29T00:04:49.928Z,1014.75
2016-02-29T00:05:49.915Z,1014.68
2016-02-29T00:06:49.934Z,1014.72
2016-02-29T00:07:49.936Z,1014.66
2016-02-29T00:08:49.939Z,1014.66
2016-02-29T00:09:49.942Z,1014.66
2016-02-29T00:10:49.945Z,1014.65
2016-02-29T00:11:49.964Z,1014.6
2016-02-29T00:12:49.966Z,1014.61
2016-02-29T00:13:49.969Z,1014.6
2016-02-29T00:14:49.972Z,1014.57
2016-02-29T00:19:39.250Z,1014.71
2016-02-29T00:20:39.253Z,1014.72
2016-02-29T00:21:39.255Z,1014.75
2016-02-29T00:22:39.258Z,1014.75
2016-02-29T00:23:39.261Z,1014.71
2016-02-29T00:24:39.263Z,1014.72
2016-02-29T00:25:39.282Z,1014.71
2016-02-29T00:26:39.284Z,1014.75
2016-02-29T00:27:39.288Z,1014.72
2016-02-29T00:28:39.290Z,1014.71
2016-02-29T00:29:39.298Z,1014.71
2016-02-29T00:30:39.301Z,1014.76
2016-02-29T00:31:39.318Z,1014.73
2016-02-29T00:32:39.321Z,1014.76
2016-02-29T00:33:39.323Z,1014.77
2016-02-29T00:34:39.326Z,1014.77
2016-02-29T00:35:39.345Z,1014.75
2016-02-29T00:36:39.347Z,1014.75
2016-02-29T00:37:39.366Z,1014.75
2016-02-29T00:38:39.353Z,1014.73
2016-02-29T00:39:39.355Z,1014.75
2016-02-29T00:40:39.358Z,1014.77
2016-02-29T00:41:39.377Z,1014.76
2016-02-29T00:42:39.380Z,1014.75
2016-02-29T00:43:39.382Z,1014.76
2016-02-29T00:44:39.400Z,1014.74
2016-02-29T00:49:32.882Z,1014.88
2016-02-29T00:50:32.885Z,1014.89
2016-02-29T00:51:32.888Z,1014.87
2016-02-29T00:52:32.890Z,1014.91
2016-02-29T00:53:32.893Z,1014.94
2016-02-29T00:54:32.912Z,1014.92
2016-02-29T00:55:32.914Z,1014.9
2016-02-29T00:56:32.917Z,1014.88
2016-02-29T00:57:32.920Z,1014.9
2016-02-29T00:58:32.938Z,1014.9
2016-02-29T00:59:32.940Z,1014.97
2016-02-29T01:00:32.943Z,1015
2016-02-29T01:01:32.945Z,1014.99
2016-02-29T01:02:32.948Z,1014.97
2016-02-29T01:03:32.967Z,1015.05
2016-02-29T01:04:32.970Z,1015.01
2016-02-29T01:05:32.972Z,1014.99
2016-02-29T01:06:32.975Z,1014.99
2016-02-29T01:07:32.978Z,1014.98
2016-02-29T01:08:32.996Z,1014.97
2016-02-29T01:09:32.999Z,1015.01
2016-02-29T01:10:33.001Z,1015
2016-02-29T01:11:33.004Z,1015.01
2016-02-29T01:12:33.007Z,1015.01
2016-02-29T01:13:33.010Z,1015.02
2016-02-29T01:14:33.028Z,1015.09
2016-02-29T01:16:33.033Z,1015.03
2016-02-29T01:17:33.036Z,1015.05
2016-02-29T01:18:33.055Z,1015.09
2016-02-29T01:19:33.041Z,1015.05
2016-02-29T01:20:33.059Z,1015.05
2016-02-29T01:21:33.063Z,1015.03
2016-02-29T01:22:33.065Z,1015.03
2016-02-29T01:23:33.068Z,1015.04
2016-02-29T01:24:33.071Z,1015.07
2016-02-29T01:25:33.073Z,1015.06
2016-02-29T01:26:33.107Z,1015.09
2016-02-29T01:27:33.094Z,1015.08
2016-02-29T01:28:33.097Z,1015.07
2016-02-29T01:29:33.098Z,1015.12
2016-02-29T01:30:33.101Z,1015.13
2016-02-29T01:31:33.120Z,1015.13
2016-02-29T01:32:33.123Z,1015.15
2016-02-29T01:33:33.125Z,1015.1
2016-02-29T01:34:33.129Z,1015.11
2016-02-29T01:35:33.131Z,1015.13
2016-02-29T01:36:33.134Z,1015.14
2016-02-29T01:37:33.153Z,1015.14
2016-02-29T01:38:33.155Z,1015.09
2016-02-29T01:39:33.157Z,1015.1
2016-02-29T01:40:33.160Z,1015.09
2016-02-29T01:41:33.163Z,1015.11
2016-02-29T01:42:33.181Z,1015.08
2016-02-29T01:43:33.183Z,1015.1
2016-02-29T01:44:33.186Z,1015.08
2016-02-29T01:48:32.041Z,1015.11
2016-02-29T01:49:22.450Z,1015.09
2016-02-29T01:50:22.452Z,1015.09
2016-02-29T01:51:22.455Z,1015.06
2016-02-29T01:52:22.458Z,1015.1
2016-02-29T01:53:22.477Z,1015.06
2016-02-29T01:54:22.480Z,1015.09
2016-02-29T01:55:22.482Z,1015.12
2016-02-29T01:56:22.485Z,1015.1
2016-02-29T01:57:22.488Z,1015.08
2016-02-29T01:58:22.506Z,1015.14
2016-02-29T01:59:22.509Z,1015.05
2016-02-29T02:00:22.509Z,1015.09
2016-02-29T02:01:22.497Z,1015.06
2016-02-29T02:02:22.485Z,1015.06
2016-02-29T02:03:22.472Z,1015.04
2016-02-29T02:04:22.475Z,1015.01
2016-02-29T02:05:22.449Z,1015.03
2016-02-29T02:06:22.446Z,1015.05
2016-02-29T02:07:22.459Z,1015.04
2016-02-29T02:08:22.456Z,1015.09
2016-02-29T02:09:22.453Z,1015.1
2016-02-29T02:10:22.451Z,1015.08
2016-02-29T02:11:22.452Z,1015.1
2016-02-29T02:12:22.453Z,1015.11
2016-02-29T02:13:22.453Z,1015.12
2016-02-29T02:14:22.470Z,1015.12
2016-02-29T02:16:22.473Z,1015.08
2016-02-29T02:17:22.475Z,1015.06
2016-02-29T02:18:22.492Z,1015.02
2016-02-29T02:19:22.478Z,1015
2016-02-29T02:20:22.496Z,1014.98
2016-02-29T02:21:22.498Z,1014.94
2016-02-29T02:22:22.502Z,1014.96
2016-02-29T02:23:22.504Z,1015.01
2016-02-29T02:24:22.507Z,1014.94
2016-02-29T02:25:22.526Z,1014.98
2016-02-29T02:26:22.544Z,1015.03
2016-02-29T02:27:22.531Z,1014.98
2016-02-29T02:28:22.533Z,1015.01
2016-02-29T02:29:22.536Z,1014.95
2016-02-29T02:30:22.538Z,1014.91
2016-02-29T02:31:22.558Z,1014.91
2016-02-29T02:32:22.561Z,1014.9
2016-02-29T02:33:22.563Z,1014.85
2016-02-29T02:34:22.581Z,1014.88
2016-02-29T02:35:22.583Z,1014.92
2016-02-29T02:36:22.586Z,1014.9
2016-02-29T02:37:22.589Z,1014.91
2016-02-29T02:38:22.591Z,1014.9
2016-02-29T02:39:22.610Z,1014.94
2016-02-29T02:40:22.613Z,1014.93
2016-02-29T02:41:22.615Z,1014.97
2016-02-29T02:42:22.618Z,1014.98
2016-02-29T02:43:22.621Z,1014.98
2016-02-29T02:44:22.640Z,1015.01
2016-02-29T02:47:29.507Z,1014.97
2016-02-29T02:48:29.509Z,1014.95
2016-02-29T02:49:29.511Z,1014.94
2016-02-29T02:50:29.515Z,1014.91
2016-02-29T02:51:29.533Z,1014.9
2016-02-29T02:52:29.536Z,1014.93
2016-02-29T02:53:29.539Z,1014.91
2016-02-29T02:54:29.541Z,1014.9
2016-02-29T02:55:29.544Z,1014.94
2016-02-29T02:56:29.562Z,1014.99
2016-02-29T02:57:29.564Z,1014.93
2016-02-29T02:58:29.568Z,1014.95
2016-02-29T02:59:29.586Z,1014.94
2016-02-29T03:00:29.589Z,1014.98
2016-02-29T03:01:29.591Z,1014.95
2016-02-29T03:02:29.594Z,1014.91
2016-02-29T03:03:29.597Z,1014.99
2016-02-29T03:04:29.615Z,1014.94
2016-02-29T03:05:29.617Z,1014.99
2016-02-29T03:06:29.620Z,1015.01
2016-02-29T03:07:29.623Z,1015.04
2016-02-29T03:08:29.625Z,1015.03
2016-02-29T03:09:29.628Z,1015.01
2016-02-29T03:10:29.647Z,1014.98
2016-02-29T03:11:29.649Z,1015.03
2016-02-29T03:12:29.668Z,1014.96
2016-02-29T03:13:29.655Z,1015.01
2016-02-29T03:14:29.673Z,1015
2016-02-29T03:19:43.249Z,1014.98
2016-02-29T03:20:43.251Z,1015.02
2016-02-29T03:21:43.254Z,1015.01
2016-02-29T03:22:43.272Z,1015.02
2016-02-29T03:23:43.276Z,1015.02
2016-02-29T03:24:43.278Z,1015.02
2016-02-29T03:25:43.281Z,1015.1
2016-02-29T03:26:43.283Z,1015.07
2016-02-29T03:27:43.301Z,1015.1
2016-02-29T03:28:43.304Z,1015.07
2016-02-29T03:29:43.307Z,1014.99
2016-02-29T03:30:43.310Z,1015.05
2016-02-29T03:31:43.312Z,1015.01
2016-02-29T03:32:43.331Z,1014.98
2016-02-29T03:33:43.333Z,1014.95
2016-02-29T03:34:43.337Z,1014.97
2016-02-29T03:35:43.339Z,1015.01
2016-02-29T03:36:43.342Z,1015.03
2016-02-29T03:37:43.360Z,1015.03
2016-02-29T03:38:43.363Z,1015.05
2016-02-29T03:39:43.365Z,1015.07
2016-02-29T03:40:43.368Z,1015.07
2016-02-29T03:41:43.385Z,1015.08
2016-02-29T03:42:43.388Z,1015.09
2016-02-29T03:43:43.392Z,1015.09
2016-02-29T03:44:43.394Z,1015.1
2016-02-29T03:49:32.658Z,1015.13
2016-02-29T03:50:32.676Z,1015.1
2016-02-29T03:51:32.679Z,1015.1
2016-02-29T03:52:32.681Z,1015.16
2016-02-29T03:53:32.685Z,1015.13
2016-02-29T03:54:32.687Z,1015.12
2016-02-29T03:55:32.706Z,1015.1
2016-02-29T03:56:32.708Z,1015.08
2016-02-29T03:57:32.711Z,1015.09
2016-02-29T03:58:32.714Z,1015.12
2016-02-29T03:59:32.717Z,1015.11
2016-02-29T04:00:32.734Z,1015.11
2016-02-29T04:01:32.737Z,1015.13
2016-02-29T04:02:32.740Z,1015.1
2016-02-29T04:03:32.743Z,1015.13
2016-02-29T04:04:32.761Z,1015.11
2016-02-29T04:05:32.764Z,1015.15
2016-02-29T04:06:32.767Z,1015.09
2016-02-29T04:07:32.769Z,1015.1
2016-02-29T04:08:32.771Z,1015.12
2016-02-29T04:09:32.789Z,1015.06
2016-02-29T04:10:32.792Z,1015.07
2016-02-29T04:11:32.794Z,1015.07
2016-02-29T04:12:32.797Z,1015.06
2016-02-29T04:13:32.800Z,1015.08
2016-02-29T04:14:32.819Z,1015.1
2016-02-29T04:20:08.691Z,1015.13
2016-02-29T04:21:08.694Z,1015.1
2016-02-29T04:22:08.697Z,1015.12
2016-02-29T04:23:08.699Z,1015.06
2016-02-29T04:24:08.718Z,1015.06
2016-02-29T04:25:08.704Z,1015.08
2016-02-29T04:26:08.723Z,1015.08
2016-02-29T04:27:08.726Z,1015.07
2016-02-29T04:28:08.730Z,1015.04
2016-02-29T04:29:08.749Z,1015.03
2016-02-29T04:30:08.751Z,1015.04
2016-02-29T04:31:08.754Z,1015.06
2016-02-29T04:32:08.757Z,1015.07
2016-02-29T04:33:08.759Z,1015.09
2016-02-29T04:34:08.777Z,1015.09
2016-02-29T04:35:08.779Z,1015.08
2016-02-29T04:36:08.783Z,1015.07
2016-02-29T04:37:08.785Z,1015.05
2016-02-29T04:38:08.788Z,1015
2016-02-29T04:39:08.790Z,1015.05
2016-02-29T04:40:08.809Z,1015.08
2016-02-29T04:41:08.812Z,1015.06
2016-02-29T04:42:08.814Z,1015.06
2016-02-29T04:43:08.817Z,1015.13
2016-02-29T04:44:08.820Z,1015.1
2016-02-29T04:45:08.837Z,1015.12
2016-02-29T04:48:14.974Z,1015.13
2016-02-29T04:49:14.976Z,1015.13
2016-02-29T04:50:14.979Z,1015.14
2016-02-29T04:51:14.981Z,1015.12
2016-02-29T04:52:15.000Z,1015.14
2016-02-29T04:53:15.003Z,1015.12
2016-02-29T04:54:15.005Z,1015.13
2016-02-29T04:55:15.008Z,1015.14
2016-02-29T04:56:15.011Z,1015.12
2016-02-29T04:57:15.030Z,1015.11
2016-02-29T04:58:15.032Z,1015.15
2016-02-29T04:59:15.035Z,1015.13
2016-02-29T05:00:15.037Z,1015.12
2016-02-29T05:01:15.041Z,1015.1
2016-02-29T05:02:15.043Z,1015.12
2016-02-29T05:03:15.061Z,1015.13
2016-02-29T05:04:15.063Z,1015.11
2016-02-29T05:05:15.066Z,1015.14
2016-02-29T05:06:15.072Z,1015.16
2016-02-29T05:07:15.074Z,1015.11
2016-02-29T05:08:15.093Z,1015.15
2016-02-29T05:09:15.096Z,1015.15
2016-02-29T05:10:15.098Z,1015.15
2016-02-29T05:11:15.101Z,1015.15
2016-02-29T05:12:15.103Z,1015.11
2016-02-29T05:13:15.106Z,1015.12
2016-02-29T05:14:15.126Z,1015.07
2016-02-29T05:18:09.289Z,1015.09
2016-02-29T05:19:04.386Z,1015.06
2016-02-29T05:20:04.388Z,1015.05
2016-02-29T05:21:04.391Z,1015.06
2016-02-29T05:22:04.394Z,1015.06
2016-02-29T05:23:04.411Z,1015.08
2016-02-29T05:24:04.414Z,1015.05
2016-02-29T05:25:04.417Z,1015.07
2016-02-29T05:26:04.419Z,1015.08
2016-02-29T05:27:04.453Z,1015.1
2016-02-29T05:28:04.441Z,1015.13
2016-02-29T05:29:04.444Z,1015.14
2016-02-29T05:30:04.446Z,1015.14
2016-02-29T05:31:04.449Z,1015.15
2016-02-29T05:32:04.451Z,1015.2
2016-02-29T05:33:04.469Z,1015.22
2016-02-29T05:34:04.473Z,1015.19
2016-02-29T05:35:04.475Z,1015.19
2016-02-29T05:36:04.478Z,1015.23
2016-02-29T05:37:04.480Z,1015.2
2016-02-29T05:38:04.483Z,1015.22
2016-02-29T05:39:04.502Z,1015.21
2016-02-29T05:40:04.505Z,1015.21
2016-02-29T05:41:04.507Z,1015.24
2016-02-29T05:42:04.510Z,1015.23
2016-02-29T05:43:04.528Z,1015.22
2016-02-29T05:44:04.532Z,1015.25
2016-02-29T05:45:04.533Z,1015.18
2016-02-29T05:48:11.401Z,1015.16
2016-02-29T05:49:11.404Z,1015.19
2016-02-29T05:50:11.407Z,1015.15
2016-02-29T05:51:11.409Z,1015.16
2016-02-29T05:52:11.412Z,1015.14
2016-02-29T05:53:11.431Z,1015.16
2016-02-29T05:54:11.433Z,1015.14
2016-02-29T05:55:11.436Z,1015.12
2016-02-29T05:56:11.438Z,1015.14
2016-02-29T05:57:11.454Z,1015.13
2016-02-29T05:58:11.451Z,1015.17
2016-02-29T05:59:11.488Z,1015.13
2016-02-29T06:00:11.465Z,1015.13
2016-02-29T06:01:13.458Z,1015.09
2016-02-29T06:02:11.475Z,1015.08
2016-02-29T06:03:11.478Z,1015.11
2016-02-29T06:04:11.481Z,1015.11
2016-02-29T06:05:11.499Z,1015.1
2016-02-29T06:06:11.503Z,1015.15
2016-02-29T06:07:11.505Z,1015.14
2016-02-29T06:08:11.508Z,1015.17
2016-02-29T06:09:11.510Z,1015.15
2016-02-29T06:10:11.513Z,1015.16
2016-02-29T06:11:11.547Z,1015.14
2016-02-29T06:12:11.534Z,1015.2
2016-02-29T06:13:11.536Z,1015.21
2016-02-29T06:14:11.539Z,1015.18
2016-02-29T06:15:11.557Z,1015.17
2016-02-29T06:18:49.717Z,1015.21
2016-02-29T06:19:49.719Z,1015.2
2016-02-29T06:20:49.722Z,1015.17
2016-02-29T06:21:49.724Z,1015.15
2016-02-29T06:22:49.727Z,1015.17
2016-02-29T06:23:49.730Z,1015.18
2016-02-29T06:24:49.749Z,1015.18
2016-02-29T06:25:49.751Z,1015.17
2016-02-29T06:26:49.754Z,1015.18
2016-02-29T06:27:49.756Z,1015.17
2016-02-29T06:28:49.759Z,1015.14
2016-02-29T06:29:49.778Z,1015.16
2016-02-29T06:30:49.781Z,1015.19
2016-02-29T06:31:49.783Z,1015.23
2016-02-29T06:32:49.786Z,1015.24
2016-02-29T06:33:49.788Z,1015.23
2016-02-29T06:34:49.806Z,1015.25
2016-02-29T06:35:49.809Z,1015.27
2016-02-29T06:36:49.812Z,1015.27
2016-02-29T06:37:49.815Z,1015.29
2016-02-29T06:38:49.817Z,1015.26
2016-02-29T06:39:49.820Z,1015.25
2016-02-29T06:40:49.838Z,1015.25
2016-02-29T06:41:49.841Z,1015.29
2016-02-29T06:42:49.844Z,1015.26
2016-02-29T06:43:49.847Z,1015.25
2016-02-29T06:44:49.849Z,1015.28
2016-02-29T06:46:55.088Z,1015.3
2016-02-29T06:47:55.092Z,1015.31
2016-02-29T06:48:55.094Z,1015.32
2016-02-29T06:49:55.113Z,1015.32
2016-02-29T06:50:55.115Z,1015.33
2016-02-29T06:51:55.118Z,1015.33
2016-02-29T06:52:55.121Z,1015.33
2016-02-29T06:53:55.123Z,1015.35
2016-02-29T06:54:55.142Z,1015.35
2016-02-29T06:55:55.145Z,1015.36
2016-02-29T06:56:55.148Z,1015.4
2016-02-29T06:57:55.150Z,1015.44
2016-02-29T06:58:55.153Z,1015.43
2016-02-29T06:59:55.155Z,1015.47
2016-02-29T07:00:55.174Z,1015.46
2016-02-29T07:01:55.176Z,1015.48
2016-02-29T07:02:55.179Z,1015.5
2016-02-29T07:03:55.181Z,1015.51
2016-02-29T07:04:55.200Z,1015.49
2016-02-29T07:05:55.203Z,1015.47
2016-02-29T07:06:55.205Z,1015.52
2016-02-29T07:07:55.208Z,1015.53
2016-02-29T07:08:55.226Z,1015.46
2016-02-29T07:09:55.213Z,1015.45
2016-02-29T07:10:55.231Z,1015.44
2016-02-29T07:11:55.234Z,1015.41
2016-02-29T07:12:55.236Z,1015.42
2016-02-29T07:13:55.255Z,1015.44
2016-02-29T07:14:55.242Z,1015.45
2016-02-29T07:19:48.725Z,1015.56
2016-02-29T07:20:48.727Z,1015.53
2016-02-29T07:21:48.730Z,1015.53
2016-02-29T07:22:48.748Z,1015.55
2016-02-29T07:23:48.751Z,1015.46
2016-02-29T07:24:48.754Z,1015.51
2016-02-29T07:25:48.771Z,1015.49
2016-02-29T07:26:48.775Z,1015.47
2016-02-29T07:27:48.777Z,1015.49
2016-02-29T07:28:48.780Z,1015.53
2016-02-29T07:29:48.782Z,1015.6
2016-02-29T07:30:48.785Z,1015.61
2016-02-29T07:31:48.804Z,1015.58
2016-02-29T07:32:48.806Z,1015.65
2016-02-29T07:33:48.809Z,1015.64
2016-02-29T07:34:48.812Z,1015.7
2016-02-29T07:35:48.814Z,1015.75
2016-02-29T07:36:48.833Z,1015.75
2016-02-29T07:37:48.836Z,1015.77
2016-02-29T07:38:48.838Z,1015.79
2016-02-29T07:39:48.842Z,1015.81
2016-02-29T07:40:48.859Z,1015.84
2016-02-29T07:41:48.862Z,1015.85
2016-02-29T07:42:48.864Z,1015.88
2016-02-29T07:43:48.867Z,1015.86
2016-02-29T07:44:48.870Z,1015.91
2016-02-29T07:48:47.147Z,1015.91
2016-02-29T07:49:38.165Z,1015.89
2016-02-29T07:50:38.152Z,1015.92
2016-02-29T07:51:38.154Z,1015.95
2016-02-29T07:52:38.173Z,1015.95
2016-02-29T07:53:38.176Z,1015.97
2016-02-29T07:54:38.179Z,1016.01
2016-02-29T07:55:38.196Z,1016.03
2016-02-29T07:56:38.199Z,1016.09
2016-02-29T07:57:38.202Z,1016.14
2016-02-29T07:58:38.205Z,1016.07
2016-02-29T07:59:38.223Z,1016.11
2016-02-29T08:00:38.226Z,1016.11
2016-02-29T08:01:38.228Z,1016.08
2016-02-29T08:02:38.231Z,1016.11
2016-02-29T08:03:38.248Z,1016.14
2016-02-29T08:04:38.251Z,1016.08
2016-02-29T08:05:38.255Z,1016.12
2016-02-29T08:06:38.257Z,1016.17
2016-02-29T08:07:38.275Z,1016.32
2016-02-29T08:08:38.278Z,1016.57
2016-02-29T08:09:38.281Z,1016.66
2016-02-29T08:10:38.300Z,1016.66
2016-02-29T08:11:38.303Z,1016.69
2016-02-29T08:12:38.320Z,1016.71
2016-02-29T08:13:38.323Z,1016.75
2016-02-29T08:14:38.325Z,1016.76
2016-02-29T08:17:46.896Z,1016.85
2016-02-29T08:18:46.914Z,1016.85
2016-02-29T08:19:46.933Z,1016.87
2016-02-29T08:20:46.935Z,1016.85
2016-02-29T08:21:46.938Z,1016.8
2016-02-29T08:22:46.956Z,1016.83
2016-02-29T08:23:46.991Z,1016.86
2016-02-29T08:24:46.978Z,1016.86
2016-02-29T08:25:46.996Z,1016.88
2016-02-29T08:26:46.999Z,1016.91
2016-02-29T08:27:47.018Z,1016.88
2016-02-29T08:28:47.020Z,1016.92
2016-02-29T08:29:47.037Z,1016.89
2016-02-29T08:30:47.040Z,1016.96
2016-02-29T08:31:47.060Z,1016.97
2016-02-29T08:32:47.062Z,1017
2016-02-29T08:33:47.080Z,1016.94
2016-02-29T08:34:47.098Z,1016.94
2016-02-29T08:35:47.101Z,1016.92
2016-02-29T08:36:47.119Z,1016.96
2016-02-29T08:37:47.122Z,1017.03
2016-02-29T08:38:47.140Z,1016.93
2016-02-29T08:39:47.143Z,1016.94
2016-02-29T08:40:47.178Z,1016.99
2016-02-29T08:41:47.180Z,1016.95
2016-02-29T08:42:47.183Z,1016.95
2016-02-29T08:43:47.200Z,1016.99
2016-02-29T08:44:47.220Z,1016.98
2016-02-29T08:49:40.685Z,1017.04
2016-02-29T08:50:40.704Z,1017.02
2016-02-29T08:51:40.706Z,1017.03
2016-02-29T08:52:40.725Z,1017.02
2016-02-29T08:53:40.744Z,1016.99
2016-02-29T08:54:40.746Z,1017
2016-02-29T08:55:40.764Z,1017
2016-02-29T08:56:40.766Z,1017
2016-02-29T08:57:40.801Z,1016.98
2016-02-29T08:58:40.803Z,1016.91
2016-02-29T08:59:40.821Z,1016.96
2016-02-29T09:00:40.825Z,1016.87
2016-02-29T09:01:40.843Z,1016.91
2016-02-29T09:02:40.846Z,1016.86
2016-02-29T09:03:40.864Z,1016.89
2016-02-29T09:04:40.881Z,1016.96
2016-02-29T09:05:40.889Z,1016.93
2016-02-29T09:06:40.903Z,1016.9
2016-02-29T09:07:40.905Z,1016.89
2016-02-29T09:08:40.923Z,1016.91
2016-02-29T09:09:40.941Z,1016.97
2016-02-29T09:10:40.944Z,1016.9
2016-02-29T09:11:40.962Z,1016.86
2016-02-29T09:12:40.980Z,1016.84
2016-02-29T09:13:40.983Z,1016.94
2016-02-29T09:14:41.002Z,1016.78
2016-02-29T09:21:10.237Z,1016.82
2016-02-29T09:22:10.240Z,1016.77
2016-02-29T09:23:10.257Z,1016.74
2016-02-29T09:24:10.276Z,1016.68
2016-02-29T09:25:10.278Z,1016.63
2016-02-29T09:26:10.297Z,1016.66
2016-02-29T09:27:10.301Z,1016.64
2016-02-29T09:28:10.318Z,1016.78
2016-02-29T09:29:10.321Z,1016.77
2016-02-29T09:30:10.339Z,1016.84
2016-02-29T09:31:10.356Z,1016.83
2016-02-29T09:32:10.359Z,1016.85
2016-02-29T09:33:10.379Z,1016.79
2016-02-29T09:34:10.397Z,1016.81
2016-02-29T09:35:10.400Z,1016.88
2016-02-29T09:36:10.417Z,1017.14
2016-02-29T09:37:10.436Z,1017.42
2016-02-29T09:38:10.439Z,1017.6
2016-02-29T09:39:10.458Z,1017.77
2016-02-29T09:40:10.475Z,1017.91
2016-02-29T09:41:10.478Z,1018.06
2016-02-29T09:42:10.496Z,1018.3
2016-02-29T09:43:10.514Z,1018.46
2016-02-29T09:44:10.516Z,1018.51
2016-02-29T09:45:10.535Z,1018.31
2016-02-29T09:46:34.854Z,1017.04
2016-02-29T10:18:05.357Z,1016.51
2016-02-29T10:19:05.361Z,1016.42
2016-02-29T10:20:05.379Z,1016.41
2016-02-29T10:21:05.382Z,1016.49
2016-02-29T10:22:05.384Z,1016.53
2016-02-29T10:23:05.387Z,1016.52
2016-02-29T10:24:05.405Z,1016.42
2016-02-29T10:25:05.408Z,1016.35
2016-02-29T10:26:05.411Z,1016.39
2016-02-29T10:27:05.429Z,1016.47
2016-02-29T10:28:05.431Z,1016.5
2016-02-29T10:29:05.434Z,1016.47
2016-02-29T10:30:05.437Z,1016.43
2016-02-29T10:31:05.456Z,1016.37
2016-02-29T10:32:05.458Z,1016.39
2016-02-29T10:33:05.461Z,1016.43
2016-02-29T10:34:05.463Z,1016.43
2016-02-29T10:35:05.482Z,1016.44
2016-02-29T10:36:05.485Z,1016.36
2016-02-29T10:37:05.488Z,1016.35
2016-02-29T10:38:05.505Z,1016.38
2016-02-29T10:39:05.508Z,1016.43
2016-02-29T10:40:05.511Z,1016.38
2016-02-29T10:41:05.529Z,1016.39
2016-02-29T10:42:05.532Z,1016.35
2016-02-29T10:43:05.566Z,1016.43
2016-02-29T10:44:05.537Z,1016.39
2016-02-29T10:45:05.555Z,1016.45
2016-02-29T10:46:05.574Z,1016.41
2016-02-29T10:47:05.561Z,1016.44
2016-02-29T10:48:05.579Z,1016.43
2016-02-29T10:49:05.582Z,1016.44
2016-02-29T10:50:05.585Z,1016.47
2016-02-29T10:51:05.587Z,1016.46
2016-02-29T10:52:05.606Z,1016.49
2016-02-29T10:53:05.609Z,1016.49
2016-02-29T10:54:05.611Z,1016.47
2016-02-29T10:55:05.645Z,1016.48
2016-02-29T10:56:05.648Z,1016.52
2016-02-29T10:57:05.634Z,1016.46
2016-02-29T10:58:05.637Z,1016.46
2016-02-29T10:59:05.656Z,1016.45
2016-02-29T11:00:05.658Z,1016.52
2016-02-29T11:01:05.661Z,1016.46
2016-02-29T11:02:05.680Z,1016.48
2016-02-29T11:03:05.683Z,1016.42
2016-02-29T11:04:05.685Z,1016.37
2016-02-29T11:05:05.688Z,1016.33
2016-02-29T11:06:05.711Z,1016.36
2016-02-29T11:07:05.710Z,1016.44
2016-02-29T11:08:05.702Z,1016.35
2016-02-29T11:09:05.694Z,1016.36
2016-02-29T11:10:05.702Z,1016.4
2016-02-29T11:11:05.693Z,1016.41
2016-02-29T11:12:05.686Z,1016.47
2016-02-29T11:13:05.685Z,1016.41
2016-02-29T11:14:05.699Z,1016.45
2016-02-29T11:15:05.697Z,1016.42
2016-02-29T11:16:20.993Z,1016.37
2016-02-29T11:17:20.994Z,1016.35
2016-02-29T11:18:20.995Z,1016.35
2016-02-29T11:19:21.028Z,1016.37
2016-02-29T11:20:21.029Z,1016.34
2016-02-29T11:21:21.016Z,1016.28
2016-02-29T11:22:21.033Z,1016.28
2016-02-29T11:23:21.035Z,1016.3
2016-02-29T11:24:21.037Z,1016.31
2016-02-29T11:25:21.040Z,1016.32
2016-02-29T11:26:21.058Z,1016.32
2016-02-29T11:27:21.060Z,1016.37
2016-02-29T11:28:21.062Z,1016.32
2016-02-29T11:29:21.081Z,1016.32
2016-02-29T11:30:21.083Z,1016.27
2016-02-29T11:31:21.086Z,1016.32
2016-02-29T11:32:21.088Z,1016.21
2016-02-29T11:33:21.106Z,1016.22
2016-02-29T11:34:21.109Z,1016.17
2016-02-29T11:35:21.127Z,1016.21
2016-02-29T11:36:21.130Z,1016.26
2016-02-29T11:37:21.133Z,1016.18
2016-02-29T11:38:21.135Z,1016.14
2016-02-29T11:39:21.154Z,1016.11
2016-02-29T11:40:21.141Z,1016.14
2016-02-29T11:41:21.159Z,1016.11
2016-02-29T11:42:21.162Z,1016.15
2016-02-29T11:43:21.165Z,1016.08
2016-02-29T11:44:21.182Z,1016.04
2016-02-29T11:46:21.185Z,1016.01
2016-02-29T11:47:21.203Z,1016.08
2016-02-29T11:48:21.191Z,1016.01
2016-02-29T11:49:21.209Z,1015.9
2016-02-29T11:50:21.212Z,1015.97
2016-02-29T11:51:21.215Z,1015.89
2016-02-29T11:52:21.232Z,1015.92
2016-02-29T11:53:21.235Z,1015.89
2016-02-29T11:54:21.238Z,1015.96
2016-02-29T11:55:21.241Z,1015.88
2016-02-29T11:56:21.259Z,1015.97
2016-02-29T11:57:21.262Z,1015.88
2016-02-29T11:58:21.264Z,1015.84
2016-02-29T11:59:21.267Z,1015.82
2016-02-29T12:00:21.270Z,1015.9
2016-02-29T12:01:21.289Z,1015.81
2016-02-29T12:02:21.291Z,1015.75
2016-02-29T12:03:21.309Z,1015.85
2016-02-29T12:04:21.311Z,1015.85
2016-02-29T12:05:21.314Z,1015.83
2016-02-29T12:06:21.317Z,1015.77
2016-02-29T12:07:21.336Z,1015.77
2016-02-29T12:08:21.339Z,1015.81
2016-02-29T12:09:21.341Z,1015.78
2016-02-29T12:10:21.344Z,1015.81
2016-02-29T12:11:21.362Z,1015.89
2016-02-29T12:12:21.365Z,1015.79
2016-02-29T12:13:21.368Z,1015.74
2016-02-29T12:14:21.371Z,1015.79
2016-02-29T12:20:48.811Z,1015.77
2016-02-29T12:21:48.829Z,1015.7
2016-02-29T12:22:48.832Z,1015.69
2016-02-29T12:23:48.835Z,1015.66
2016-02-29T12:24:48.837Z,1015.66
2016-02-29T12:25:48.856Z,1015.67
2016-02-29T12:26:48.858Z,1015.57
2016-02-29T12:27:48.861Z,1015.61
2016-02-29T12:28:48.879Z,1015.55
2016-02-29T12:29:48.881Z,1015.57
2016-02-29T12:30:48.884Z,1015.57
2016-02-29T12:31:48.887Z,1015.57
2016-02-29T12:32:48.905Z,1015.6
2016-02-29T12:33:48.909Z,1015.56
2016-02-29T12:34:48.911Z,1015.59
2016-02-29T12:35:48.914Z,1015.6
2016-02-29T12:36:48.933Z,1015.55
2016-02-29T12:37:48.935Z,1015.57
2016-02-29T12:38:48.938Z,1015.6
2016-02-29T12:39:48.940Z,1015.57
2016-02-29T12:40:48.959Z,1015.52
2016-02-29T12:41:48.961Z,1015.61
2016-02-29T12:42:48.964Z,1015.56
2016-02-29T12:43:48.966Z,1015.64
2016-02-29T12:44:48.985Z,1015.58
2016-02-29T12:52:31.694Z,1015.49
2016-02-29T12:53:31.696Z,1015.53
2016-02-29T12:54:31.715Z,1015.47
2016-02-29T12:55:31.718Z,1015.45
2016-02-29T12:56:31.736Z,1015.44
2016-02-29T12:57:31.739Z,1015.45
2016-02-29T12:58:31.741Z,1015.4
2016-02-29T12:59:31.744Z,1015.35
2016-02-29T13:00:31.747Z,1015.39
2016-02-29T13:01:31.750Z,1015.32
2016-02-29T13:02:31.767Z,1015.37
2016-02-29T13:03:31.770Z,1015.41
2016-02-29T13:04:31.773Z,1015.37
2016-02-29T13:05:31.782Z,1015.37
2016-02-29T13:06:31.784Z,1015.36
2016-02-29T13:07:31.803Z,1015.42
2016-02-29T13:08:31.805Z,1015.43
2016-02-29T13:09:31.823Z,1015.46
2016-02-29T13:10:31.826Z,1015.53
2016-02-29T13:11:31.829Z,1015.49
2016-02-29T13:12:31.832Z,1015.38
2016-02-29T13:13:31.834Z,1015.37
2016-02-29T13:14:31.853Z,1015.33
2016-02-29T13:20:39.041Z,1015.4
2016-02-29T13:21:39.043Z,1015.43
2016-02-29T13:22:39.046Z,1015.46
2016-02-29T13:23:39.064Z,1015.51
2016-02-29T13:24:39.067Z,1015.68
2016-02-29T13:25:39.070Z,1015.67
2016-02-29T13:26:39.088Z,1015.57
2016-02-29T13:27:39.091Z,1015.6
2016-02-29T13:28:39.093Z,1015.78
2016-02-29T13:29:39.096Z,1015.49
2016-02-29T13:30:39.115Z,1015.5
2016-02-29T13:31:39.133Z,1015.45
2016-02-29T13:32:39.135Z,1015.41
2016-02-29T13:33:39.138Z,1015.39
2016-02-29T13:34:39.141Z,1015.65
2016-02-29T13:35:39.143Z,1015.58
2016-02-29T13:36:39.146Z,1015.8
2016-02-29T13:37:39.165Z,1015.74
2016-02-29T13:38:39.168Z,1015.56
2016-02-29T13:39:39.170Z,1015.47
2016-02-29T13:40:39.189Z,1015.43
2016-02-29T13:41:39.191Z,1015.42
2016-02-29T13:42:39.195Z,1015.48
2016-02-29T13:43:39.212Z,1015.54
2016-02-29T13:44:39.215Z,1015.77
2016-02-29T13:50:15.087Z,1015.35
2016-02-29T13:51:15.106Z,1015.35
2016-02-29T13:52:15.108Z,1015.33
2016-02-29T13:53:15.111Z,1015.34
2016-02-29T13:54:15.129Z,1015.27
2016-02-29T13:55:15.132Z,1015.28
2016-02-29T13:56:15.136Z,1015.2
2016-02-29T13:57:15.153Z,1015.16
2016-02-29T13:58:15.156Z,1015.2
2016-02-29T13:59:15.158Z,1015.22